This is the latest recevied weather packets stored in our database for station/object YF9UAG-17. If no packets are shown the sender has not sent any weather packets the latest 10 day(s).
| Time | Temp. | Humidity | Pressure | Rain* | Wind** | Luminosity | Snow |
|---|---|---|---|---|---|---|---|
| 1787893487 | 30° C | 41% | 1032.7 hPa | - | - | - | - |
| 1787892885 | 29.44° C | 43% | 1032.7 hPa | - | - | - | - |
| 1787892282 | 28.33° C | 45% | 1032.8 hPa | - | - | - | - |
| 1787891680 | 29.44° C | 42% | 1032.9 hPa | - | - | - | - |
| 1787891077 | 28.33° C | 45% | 1033.1 hPa | - | - | - | - |
| 1787890475 | 27.78° C | 45% | 1033.1 hPa | - | - | - | - |
| 1787889873 | 28.33° C | 43% | 1033.3 hPa | - | - | - | - |
| 1787889270 | 27.78° C | 45% | 1033.3 hPa | - | - | - | - |
| 1787888668 | 27.78° C | 47% | 1033.5 hPa | - | - | - | - |
| 1787888065 | 27.22° C | 47% | 1033.8 hPa | - | - | - | - |
| 1787887463 | 27.78° C | 46% | 1034 hPa | - | - | - | - |
| 1787886861 | 27.22° C | 47% | 1034.2 hPa | - | - | - | - |
| 1787886259 | 27.22° C | 46% | 1034.4 hPa | - | - | - | - |
| 1787885656 | 27.22° C | 46% | 1034.6 hPa | - | - | - | - |
| 1787885054 | 27.78° C | 43% | 1034.6 hPa | - | - | - | - |
| 1787884451 | 27.22° C | 45% | 1034.6 hPa | - | - | - | - |
| 1787883849 | 27.22° C | 43% | 1034.8 hPa | - | - | - | - |
| 1787883247 | 27.22° C | 44% | 1035.1 hPa | - | - | - | - |
| 1787882644 | 26.67° C | 46% | 1035 hPa | - | - | - | - |
| 1787882042 | 26.67° C | 44% | 1034.9 hPa | - | - | - | - |
| 1787881440 | 26.11° C | 45% | 1034.9 hPa | - | - | - | - |
| 1787880837 | 26.67° C | 45% | 1035 hPa | - | - | - | - |
| 1787880235 | 26.11° C | 46% | 1035 hPa | - | - | - | - |
| 1787879633 | 26.67° C | 45% | 1034.9 hPa | - | - | - | - |
| 1787879031 | 26.67° C | 44% | 1034.9 hPa | - | - | - | - |
* Rain since midnight (hover to see other rain measurements)
** Current wind speed in m/s (hover to see current wind gust speed)